sensor_id;sensor_type;location;lat;lon;timestamp;temperature;humidity
19586;DHT22;9939;49.246;9.106;2023-09-18T00:02:07;19.20;99.90
19586;DHT22;9939;49.246;9.106;2023-09-18T00:04:34;19.30;99.90
19586;DHT22;9939;49.246;9.106;2023-09-18T00:07:01;19.20;99.90
19586;DHT22;9939;49.246;9.106;2023-09-18T00:09:28;19.30;99.90
19586;DHT22;9939;49.246;9.106;2023-09-18T00:11:55;19.20;99.90
19586;DHT22;9939;49.246;9.106;2023-09-18T00:14:22;19.20;99.90
19586;DHT22;9939;49.246;9.106;2023-09-18T00:16:49;19.30;99.90
19586;DHT22;9939;49.246;9.106;2023-09-18T00:19:25;19.60;99.90
19586;DHT22;9939;49.246;9.106;2023-09-18T00:21:51;19.50;99.90
19586;DHT22;9939;49.246;9.106;2023-09-18T00:24:19;19.50;99.90
19586;DHT22;9939;49.246;9.106;2023-09-18T00:26:47;19.60;99.90
19586;DHT22;9939;49.246;9.106;2023-09-18T00:29:14;19.70;99.90
19586;DHT22;9939;49.246;9.106;2023-09-18T00:31:41;19.60;99.90
19586;DHT22;9939;49.246;9.106;2023-09-18T00:34:09;19.50;99.90
19586;DHT22;9939;49.246;9.106;2023-09-18T00:36:36;19.40;99.90
19586;DHT22;9939;49.246;9.106;2023-09-18T00:39:04;19.60;99.90
19586;DHT22;9939;49.246;9.106;2023-09-18T00:41:30;19.60;99.90
19586;DHT22;9939;49.246;9.106;2023-09-18T00:43:57;19.70;99.90
19586;DHT22;9939;49.246;9.106;2023-09-18T00:46:25;19.60;99.90
19586;DHT22;9939;49.246;9.106;2023-09-18T00:48:52;19.50;99.90
19586;DHT22;9939;49.246;9.106;2023-09-18T00:51:20;19.60;99.90
19586;DHT22;9939;49.246;9.106;2023-09-18T00:53:47;19.50;99.90
19586;DHT22;9939;49.246;9.106;2023-09-18T00:56:15;19.50;99.90
19586;DHT22;9939;49.246;9.106;2023-09-18T00:58:42;19.60;99.90
19586;DHT22;9939;49.246;9.106;2023-09-18T01:01:10;19.60;99.90
19586;DHT22;9939;49.246;9.106;2023-09-18T01:03:38;19.60;99.90
19586;DHT22;9939;49.246;9.106;2023-09-18T01:06:05;19.70;99.90
19586;DHT22;9939;49.246;9.106;2023-09-18T01:08:32;19.70;99.90
19586;DHT22;9939;49.246;9.106;2023-09-18T01:11:14;19.60;99.90
19586;DHT22;9939;49.246;9.106;2023-09-18T01:13:45;19.50;99.90
19586;DHT22;9939;49.246;9.106;2023-09-18T01:16:25;19.50;99.90
19586;DHT22;9939;49.246;9.106;2023-09-18T01:18:53;19.50;99.90
19586;DHT22;9939;49.246;9.106;2023-09-18T01:21:21;19.50;99.90
19586;DHT22;9939;49.246;9.106;2023-09-18T01:23:48;19.50;99.90
19586;DHT22;9939;49.246;9.106;2023-09-18T01:26:16;19.50;99.90
19586;DHT22;9939;49.246;9.106;2023-09-18T01:28:43;19.50;99.90
19586;DHT22;9939;49.246;9.106;2023-09-18T01:31:10;19.70;99.90
19586;DHT22;9939;49.246;9.106;2023-09-18T01:33:37;19.90;99.90
19586;DHT22;9939;49.246;9.106;2023-09-18T01:36:06;19.80;99.90
19586;DHT22;9939;49.246;9.106;2023-09-18T01:38:40;19.90;99.90
19586;DHT22;9939;49.246;9.106;2023-09-18T01:41:08;19.80;99.90
19586;DHT22;9939;49.246;9.106;2023-09-18T01:43:35;19.90;99.90
19586;DHT22;9939;49.246;9.106;2023-09-18T01:46:02;19.90;99.90
19586;DHT22;9939;49.246;9.106;2023-09-18T01:48:30;20.00;99.90
19586;DHT22;9939;49.246;9.106;2023-09-18T01:50:58;20.20;99.90
19586;DHT22;9939;49.246;9.106;2023-09-18T01:53:24;20.10;99.90
19586;DHT22;9939;49.246;9.106;2023-09-18T01:55:53;20.20;99.90
19586;DHT22;9939;49.246;9.106;2023-09-18T01:58:20;20.30;99.90
19586;DHT22;9939;49.246;9.106;2023-09-18T02:00:47;20.40;99.90
19586;DHT22;9939;49.246;9.106;2023-09-18T02:03:14;20.30;99.90
19586;DHT22;9939;49.246;9.106;2023-09-18T02:06:04;20.10;99.90
19586;DHT22;9939;49.246;9.106;2023-09-18T02:08:32;20.20;99.90
19586;DHT22;9939;49.246;9.106;2023-09-18T02:10:59;20.10;99.90
19586;DHT22;9939;49.246;9.106;2023-09-18T02:13:26;20.10;99.90
19586;DHT22;9939;49.246;9.106;2023-09-18T02:15:53;20.20;99.90
19586;DHT22;9939;49.246;9.106;2023-09-18T02:18:20;19.80;99.90
19586;DHT22;9939;49.246;9.106;2023-09-18T02:20:47;19.50;99.90
19586;DHT22;9939;49.246;9.106;2023-09-18T02:23:15;19.30;99.90
19586;DHT22;9939;49.246;9.106;2023-09-18T02:25:42;19.10;99.90
19586;DHT22;9939;49.246;9.106;2023-09-18T02:28:09;19.10;99.90
19586;DHT22;9939;49.246;9.106;2023-09-18T02:30:37;19.10;99.90
19586;DHT22;9939;49.246;9.106;2023-09-18T02:33:03;19.00;99.90
19586;DHT22;9939;49.246;9.106;2023-09-18T02:35:34;18.80;99.90
19586;DHT22;9939;49.246;9.106;2023-09-18T02:38:01;18.90;99.90
19586;DHT22;9939;49.246;9.106;2023-09-18T02:40:30;18.90;99.90
19586;DHT22;9939;49.246;9.106;2023-09-18T02:42:57;18.90;99.90
19586;DHT22;9939;49.246;9.106;2023-09-18T02:45:24;18.80;99.90
19586;DHT22;9939;49.246;9.106;2023-09-18T02:47:53;18.80;99.90
19586;DHT22;9939;49.246;9.106;2023-09-18T02:50:20;18.70;99.90
19586;DHT22;9939;49.246;9.106;2023-09-18T02:52:47;18.80;99.90
19586;DHT22;9939;49.246;9.106;2023-09-18T02:55:14;18.60;99.90
19586;DHT22;9939;49.246;9.106;2023-09-18T02:57:41;18.50;99.90
19586;DHT22;9939;49.246;9.106;2023-09-18T03:00:09;18.70;99.90
19586;DHT22;9939;49.246;9.106;2023-09-18T03:02:36;18.70;99.90
19586;DHT22;9939;49.246;9.106;2023-09-18T03:05:03;18.70;99.90
19586;DHT22;9939;49.246;9.106;2023-09-18T03:07:31;18.70;99.90
19586;DHT22;9939;49.246;9.106;2023-09-18T03:09:58;18.50;99.90
19586;DHT22;9939;49.246;9.106;2023-09-18T03:12:25;18.40;99.90
19586;DHT22;9939;49.246;9.106;2023-09-18T03:14:51;18.50;99.90
19586;DHT22;9939;49.246;9.106;2023-09-18T03:17:18;18.40;99.90
19586;DHT22;9939;49.246;9.106;2023-09-18T03:19:50;18.60;99.90
19586;DHT22;9939;49.246;9.106;2023-09-18T03:22:17;18.40;99.90
19586;DHT22;9939;49.246;9.106;2023-09-18T03:24:44;18.30;99.90
19586;DHT22;9939;49.246;9.106;2023-09-18T03:27:11;18.30;99.90
19586;DHT22;9939;49.246;9.106;2023-09-18T03:29:38;18.30;99.90
19586;DHT22;9939;49.246;9.106;2023-09-18T03:32:05;18.30;99.90
19586;DHT22;9939;49.246;9.106;2023-09-18T03:34:32;18.20;99.90
19586;DHT22;9939;49.246;9.106;2023-09-18T03:36:59;18.40;99.90
19586;DHT22;9939;49.246;9.106;2023-09-18T03:39:26;18.30;99.90
19586;DHT22;9939;49.246;9.106;2023-09-18T03:41:53;18.20;99.90
19586;DHT22;9939;49.246;9.106;2023-09-18T03:44:20;18.30;99.90
19586;DHT22;9939;49.246;9.106;2023-09-18T03:46:48;18.50;99.90
19586;DHT22;9939;49.246;9.106;2023-09-18T03:49:14;18.50;99.90
19586;DHT22;9939;49.246;9.106;2023-09-18T03:51:42;18.40;99.90
19586;DHT22;9939;49.246;9.106;2023-09-18T03:54:08;18.20;99.90
19586;DHT22;9939;49.246;9.106;2023-09-18T03:56:35;18.40;99.90
19586;DHT22;9939;49.246;9.106;2023-09-18T03:59:02;18.50;99.90
19586;DHT22;9939;49.246;9.106;2023-09-18T04:01:31;18.50;99.90
19586;DHT22;9939;49.246;9.106;2023-09-18T04:03:58;18.40;99.90
19586;DHT22;9939;49.246;9.106;2023-09-18T04:06:25;18.40;99.90
19586;DHT22;9939;49.246;9.106;2023-09-18T04:08:52;18.40;99.90
19586;DHT22;9939;49.246;9.106;2023-09-18T04:11:19;18.40;99.90
19586;DHT22;9939;49.246;9.106;2023-09-18T04:13:46;18.40;99.90
19586;DHT22;9939;49.246;9.106;2023-09-18T04:16:13;18.50;99.90
19586;DHT22;9939;49.246;9.106;2023-09-18T04:18:44;18.50;99.90
19586;DHT22;9939;49.246;9.106;2023-09-18T04:21:11;18.50;99.90
19586;DHT22;9939;49.246;9.106;2023-09-18T04:23:38;18.50;99.90
19586;DHT22;9939;49.246;9.106;2023-09-18T04:26:06;18.50;99.90
19586;DHT22;9939;49.246;9.106;2023-09-18T04:28:33;18.50;99.90
19586;DHT22;9939;49.246;9.106;2023-09-18T04:31:00;18.60;99.90
19586;DHT22;9939;49.246;9.106;2023-09-18T04:33:27;18.70;99.90
19586;DHT22;9939;49.246;9.106;2023-09-18T04:35:56;18.80;99.90
19586;DHT22;9939;49.246;9.106;2023-09-18T04:38:23;18.90;99.90
19586;DHT22;9939;49.246;9.106;2023-09-18T04:40:57;18.90;99.90
19586;DHT22;9939;49.246;9.106;2023-09-18T04:43:24;18.70;99.90
19586;DHT22;9939;49.246;9.106;2023-09-18T04:45:51;18.60;99.90
19586;DHT22;9939;49.246;9.106;2023-09-18T04:48:18;18.40;99.90
19586;DHT22;9939;49.246;9.106;2023-09-18T04:50:45;18.50;99.90
19586;DHT22;9939;49.246;9.106;2023-09-18T04:53:13;18.50;99.90
19586;DHT22;9939;49.246;9.106;2023-09-18T04:55:40;18.50;99.90
19586;DHT22;9939;49.246;9.106;2023-09-18T04:58:08;18.50;99.90
19586;DHT22;9939;49.246;9.106;2023-09-18T05:00:35;18.50;99.90
19586;DHT22;9939;49.246;9.106;2023-09-18T05:03:01;18.50;99.90
19586;DHT22;9939;49.246;9.106;2023-09-18T05:05:30;18.40;99.90
19586;DHT22;9939;49.246;9.106;2023-09-18T05:07:57;18.30;99.90
19586;DHT22;9939;49.246;9.106;2023-09-18T05:10:24;18.60;99.90
19586;DHT22;9939;49.246;9.106;2023-09-18T05:12:51;18.50;99.90
19586;DHT22;9939;49.246;9.106;2023-09-18T05:15:25;18.40;99.90
19586;DHT22;9939;49.246;9.106;2023-09-18T05:17:53;18.30;99.90
19586;DHT22;9939;49.246;9.106;2023-09-18T05:20:24;18.40;99.90
19586;DHT22;9939;49.246;9.106;2023-09-18T05:22:52;18.50;99.90
19586;DHT22;9939;49.246;9.106;2023-09-18T05:25:22;18.40;99.90
19586;DHT22;9939;49.246;9.106;2023-09-18T05:27:50;18.50;99.90
19586;DHT22;9939;49.246;9.106;2023-09-18T05:32:55;18.30;99.90
19586;DHT22;9939;49.246;9.106;2023-09-18T05:35:22;18.30;99.90
19586;DHT22;9939;49.246;9.106;2023-09-18T05:37:50;18.50;99.90
19586;DHT22;9939;49.246;9.106;2023-09-18T05:40:21;18.50;99.90
19586;DHT22;9939;49.246;9.106;2023-09-18T05:42:48;18.30;99.90
19586;DHT22;9939;49.246;9.106;2023-09-18T05:45:15;18.40;99.90
19586;DHT22;9939;49.246;9.106;2023-09-18T05:47:42;18.30;99.90
19586;DHT22;9939;49.246;9.106;2023-09-18T05:50:10;18.30;99.90
19586;DHT22;9939;49.246;9.106;2023-09-18T05:52:45;18.20;99.90
19586;DHT22;9939;49.246;9.106;2023-09-18T05:55:13;18.30;99.90
19586;DHT22;9939;49.246;9.106;2023-09-18T05:57:41;18.40;99.90
19586;DHT22;9939;49.246;9.106;2023-09-18T06:00:08;18.60;99.90
19586;DHT22;9939;49.246;9.106;2023-09-18T06:02:38;18.50;99.90
19586;DHT22;9939;49.246;9.106;2023-09-18T06:05:06;18.50;99.90
19586;DHT22;9939;49.246;9.106;2023-09-18T06:07:33;18.60;99.90
19586;DHT22;9939;49.246;9.106;2023-09-18T06:10:00;18.60;99.90
19586;DHT22;9939;49.246;9.106;2023-09-18T06:12:27;18.70;99.90
19586;DHT22;9939;49.246;9.106;2023-09-18T06:14:53;18.90;99.90
19586;DHT22;9939;49.246;9.106;2023-09-18T06:17:20;19.00;99.90
19586;DHT22;9939;49.246;9.106;2023-09-18T06:19:48;18.90;99.90
19586;DHT22;9939;49.246;9.106;2023-09-18T06:22:15;19.00;99.90
19586;DHT22;9939;49.246;9.106;2023-09-18T06:24:42;19.10;99.90
19586;DHT22;9939;49.246;9.106;2023-09-18T06:27:09;19.20;99.90
19586;DHT22;9939;49.246;9.106;2023-09-18T06:29:35;19.20;99.90
19586;DHT22;9939;49.246;9.106;2023-09-18T06:32:05;19.40;99.90
19586;DHT22;9939;49.246;9.106;2023-09-18T06:34:33;19.50;99.90
19586;DHT22;9939;49.246;9.106;2023-09-18T06:37:00;19.50;99.90
19586;DHT22;9939;49.246;9.106;2023-09-18T06:39:27;19.50;99.90
19586;DHT22;9939;49.246;9.106;2023-09-18T06:41:54;19.40;99.90
19586;DHT22;9939;49.246;9.106;2023-09-18T06:44:20;19.40;99.90
19586;DHT22;9939;49.246;9.106;2023-09-18T06:46:50;19.30;99.90
19586;DHT22;9939;49.246;9.106;2023-09-18T06:49:17;19.30;99.90
19586;DHT22;9939;49.246;9.106;2023-09-18T06:51:46;19.40;99.90
19586;DHT22;9939;49.246;9.106;2023-09-18T06:54:13;19.30;99.90
19586;DHT22;9939;49.246;9.106;2023-09-18T06:56:40;19.30;99.90
19586;DHT22;9939;49.246;9.106;2023-09-18T06:59:08;19.30;99.90
19586;DHT22;9939;49.246;9.106;2023-09-18T07:01:35;19.70;99.90
19586;DHT22;9939;49.246;9.106;2023-09-18T07:04:02;19.70;99.90
19586;DHT22;9939;49.246;9.106;2023-09-18T07:06:31;19.90;99.90
19586;DHT22;9939;49.246;9.106;2023-09-18T07:08:58;20.10;99.90
19586;DHT22;9939;49.246;9.106;2023-09-18T07:11:26;20.10;99.90
19586;DHT22;9939;49.246;9.106;2023-09-18T07:13:52;20.30;99.90
19586;DHT22;9939;49.246;9.106;2023-09-18T07:16:19;20.10;99.90
19586;DHT22;9939;49.246;9.106;2023-09-18T07:18:46;20.10;99.90
19586;DHT22;9939;49.246;9.106;2023-09-18T07:21:13;20.20;99.90
19586;DHT22;9939;49.246;9.106;2023-09-18T07:23:40;20.20;99.90
19586;DHT22;9939;49.246;9.106;2023-09-18T07:26:07;20.20;99.90
19586;DHT22;9939;49.246;9.106;2023-09-18T07:28:34;20.50;99.90
19586;DHT22;9939;49.246;9.106;2023-09-18T07:31:05;20.50;99.90
19586;DHT22;9939;49.246;9.106;2023-09-18T07:33:32;20.50;99.90
19586;DHT22;9939;49.246;9.106;2023-09-18T07:35:59;20.40;99.90
19586;DHT22;9939;49.246;9.106;2023-09-18T07:38:26;20.40;99.90
19586;DHT22;9939;49.246;9.106;2023-09-18T07:40:53;20.50;99.90
19586;DHT22;9939;49.246;9.106;2023-09-18T07:43:24;20.60;99.90
19586;DHT22;9939;49.246;9.106;2023-09-18T07:45:52;20.60;99.90
19586;DHT22;9939;49.246;9.106;2023-09-18T07:48:19;20.70;99.90
19586;DHT22;9939;49.246;9.106;2023-09-18T07:50:47;20.60;99.90
19586;DHT22;9939;49.246;9.106;2023-09-18T07:53:16;20.60;99.90
19586;DHT22;9939;49.246;9.106;2023-09-18T07:55:43;20.50;99.90
19586;DHT22;9939;49.246;9.106;2023-09-18T07:58:10;20.40;99.90
19586;DHT22;9939;49.246;9.106;2023-09-18T08:00:38;20.50;99.90
19586;DHT22;9939;49.246;9.106;2023-09-18T08:03:06;20.60;99.90
19586;DHT22;9939;49.246;9.106;2023-09-18T08:05:33;20.60;99.90
19586;DHT22;9939;49.246;9.106;2023-09-18T08:07:59;20.60;99.90
19586;DHT22;9939;49.246;9.106;2023-09-18T08:10:27;20.60;99.90
19586;DHT22;9939;49.246;9.106;2023-09-18T08:12:54;20.60;99.90
19586;DHT22;9939;49.246;9.106;2023-09-18T08:15:21;20.50;99.90
19586;DHT22;9939;49.246;9.106;2023-09-18T08:17:48;20.50;99.90
19586;DHT22;9939;49.246;9.106;2023-09-18T08:20:16;20.60;99.90
19586;DHT22;9939;49.246;9.106;2023-09-18T08:22:43;20.50;99.90
19586;DHT22;9939;49.246;9.106;2023-09-18T08:25:11;20.60;99.90
19586;DHT22;9939;49.246;9.106;2023-09-18T08:27:38;20.60;99.90
19586;DHT22;9939;49.246;9.106;2023-09-18T08:30:11;20.70;99.90
19586;DHT22;9939;49.246;9.106;2023-09-18T08:32:38;20.70;99.90
19586;DHT22;9939;49.246;9.106;2023-09-18T08:35:06;20.80;99.90
19586;DHT22;9939;49.246;9.106;2023-09-18T08:37:33;20.90;99.90
19586;DHT22;9939;49.246;9.106;2023-09-18T08:40:00;20.80;99.90
19586;DHT22;9939;49.246;9.106;2023-09-18T08:42:42;21.00;99.90
19586;DHT22;9939;49.246;9.106;2023-09-18T08:45:10;21.10;99.90
19586;DHT22;9939;49.246;9.106;2023-09-18T08:47:41;21.30;99.90
19586;DHT22;9939;49.246;9.106;2023-09-18T08:50:08;21.20;99.90
19586;DHT22;9939;49.246;9.106;2023-09-18T08:52:37;21.40;99.90
19586;DHT22;9939;49.246;9.106;2023-09-18T08:55:04;21.40;99.90
19586;DHT22;9939;49.246;9.106;2023-09-18T08:57:33;21.40;99.90
19586;DHT22;9939;49.246;9.106;2023-09-18T09:00:02;21.40;99.90
19586;DHT22;9939;49.246;9.106;2023-09-18T09:02:33;21.40;99.90
19586;DHT22;9939;49.246;9.106;2023-09-18T09:05:01;21.10;99.90
19586;DHT22;9939;49.246;9.106;2023-09-18T09:07:28;21.00;99.90
19586;DHT22;9939;49.246;9.106;2023-09-18T09:09:57;20.90;99.90
19586;DHT22;9939;49.246;9.106;2023-09-18T09:15:12;20.80;99.90
19586;DHT22;9939;49.246;9.106;2023-09-18T09:17:39;20.80;99.90
19586;DHT22;9939;49.246;9.106;2023-09-18T09:20:09;20.70;99.90
19586;DHT22;9939;49.246;9.106;2023-09-18T09:22:38;20.60;99.90
19586;DHT22;9939;49.246;9.106;2023-09-18T09:25:26;20.70;99.90
19586;DHT22;9939;49.246;9.106;2023-09-18T09:27:53;20.60;99.90
19586;DHT22;9939;49.246;9.106;2023-09-18T09:30:22;20.40;99.90
19586;DHT22;9939;49.246;9.106;2023-09-18T09:32:50;20.20;99.90
19586;DHT22;9939;49.246;9.106;2023-09-18T09:35:27;20.00;99.90
19586;DHT22;9939;49.246;9.106;2023-09-18T09:38:00;19.90;99.90
19586;DHT22;9939;49.246;9.106;2023-09-18T09:40:30;19.70;99.90
19586;DHT22;9939;49.246;9.106;2023-09-18T09:42:58;19.70;99.90
19586;DHT22;9939;49.246;9.106;2023-09-18T09:45:28;19.60;99.90
19586;DHT22;9939;49.246;9.106;2023-09-18T09:48:05;19.50;99.90
19586;DHT22;9939;49.246;9.106;2023-09-18T09:50:34;19.50;99.90
19586;DHT22;9939;49.246;9.106;2023-09-18T09:53:12;19.60;99.90
19586;DHT22;9939;49.246;9.106;2023-09-18T09:55:40;19.50;99.90
19586;DHT22;9939;49.246;9.106;2023-09-18T09:58:08;19.70;99.90
19586;DHT22;9939;49.246;9.106;2023-09-18T10:00:42;19.70;99.90
19586;DHT22;9939;49.246;9.106;2023-09-18T10:03:10;19.70;99.90
19586;DHT22;9939;49.246;9.106;2023-09-18T10:05:39;19.70;99.90
19586;DHT22;9939;49.246;9.106;2023-09-18T10:08:07;19.70;99.90
19586;DHT22;9939;49.246;9.106;2023-09-18T10:10:35;19.70;99.90
19586;DHT22;9939;49.246;9.106;2023-09-18T10:13:05;19.90;99.90
19586;DHT22;9939;49.246;9.106;2023-09-18T10:15:34;20.10;99.90
19586;DHT22;9939;49.246;9.106;2023-09-18T10:18:07;20.20;99.90
19586;DHT22;9939;49.246;9.106;2023-09-18T10:20:37;20.30;99.90
19586;DHT22;9939;49.246;9.106;2023-09-18T10:23:04;20.20;99.90
19586;DHT22;9939;49.246;9.106;2023-09-18T10:25:32;20.30;99.90
19586;DHT22;9939;49.246;9.106;2023-09-18T10:27:59;20.50;99.90
19586;DHT22;9939;49.246;9.106;2023-09-18T10:30:32;20.70;99.90
19586;DHT22;9939;49.246;9.106;2023-09-18T10:32:59;20.90;99.90
19586;DHT22;9939;49.246;9.106;2023-09-18T10:35:28;21.20;99.90
19586;DHT22;9939;49.246;9.106;2023-09-18T10:37:55;21.20;99.90
19586;DHT22;9939;49.246;9.106;2023-09-18T10:40:23;21.20;99.90
19586;DHT22;9939;49.246;9.106;2023-09-18T10:42:51;21.00;99.90
19586;DHT22;9939;49.246;9.106;2023-09-18T10:45:20;21.10;99.90
19586;DHT22;9939;49.246;9.106;2023-09-18T10:47:48;21.10;99.90
19586;DHT22;9939;49.246;9.106;2023-09-18T10:50:25;21.50;99.90
19586;DHT22;9939;49.246;9.106;2023-09-18T10:52:52;22.00;99.90
19586;DHT22;9939;49.246;9.106;2023-09-18T10:55:20;22.30;99.90
19586;DHT22;9939;49.246;9.106;2023-09-18T10:57:55;22.50;99.90
19586;DHT22;9939;49.246;9.106;2023-09-18T11:00:24;22.40;99.90
19586;DHT22;9939;49.246;9.106;2023-09-18T11:02:51;22.30;99.90
19586;DHT22;9939;49.246;9.106;2023-09-18T11:05:40;22.10;99.90
19586;DHT22;9939;49.246;9.106;2023-09-18T11:11:02;22.20;99.90
19586;DHT22;9939;49.246;9.106;2023-09-18T11:13:42;21.90;99.90
19586;DHT22;9939;49.246;9.106;2023-09-18T11:16:32;21.70;99.90
19586;DHT22;9939;49.246;9.106;2023-09-18T11:21:28;21.90;99.90
19586;DHT22;9939;49.246;9.106;2023-09-18T11:26:32;22.00;99.90
19586;DHT22;9939;49.246;9.106;2023-09-18T11:29:00;22.10;99.90
19586;DHT22;9939;49.246;9.106;2023-09-18T11:34:11;22.30;99.90
19586;DHT22;9939;49.246;9.106;2023-09-18T11:36:37;22.50;99.90
19586;DHT22;9939;49.246;9.106;2023-09-18T11:39:04;22.40;99.90
19586;DHT22;9939;49.246;9.106;2023-09-18T11:41:32;22.40;99.90
19586;DHT22;9939;49.246;9.106;2023-09-18T11:46:32;23.00;99.90
19586;DHT22;9939;49.246;9.106;2023-09-18T11:48:59;23.20;99.90
19586;DHT22;9939;49.246;9.106;2023-09-18T11:51:26;23.20;99.90
19586;DHT22;9939;49.246;9.106;2023-09-18T11:53:54;23.20;99.90
19586;DHT22;9939;49.246;9.106;2023-09-18T11:56:22;23.20;99.90
19586;DHT22;9939;49.246;9.106;2023-09-18T11:58:49;23.20;99.90
19586;DHT22;9939;49.246;9.106;2023-09-18T12:01:17;23.20;99.90
19586;DHT22;9939;49.246;9.106;2023-09-18T12:03:44;23.40;99.90
19586;DHT22;9939;49.246;9.106;2023-09-18T12:06:11;23.10;99.90
19586;DHT22;9939;49.246;9.106;2023-09-18T12:08:42;23.00;99.90
19586;DHT22;9939;49.246;9.106;2023-09-18T12:11:09;22.90;99.90
19586;DHT22;9939;49.246;9.106;2023-09-18T12:13:36;22.90;99.90
19586;DHT22;9939;49.246;9.106;2023-09-18T12:16:04;22.70;99.90
19586;DHT22;9939;49.246;9.106;2023-09-18T12:18:32;22.60;99.90
19586;DHT22;9939;49.246;9.106;2023-09-18T12:21:02;22.30;99.90
19586;DHT22;9939;49.246;9.106;2023-09-18T12:23:37;22.40;99.90
19586;DHT22;9939;49.246;9.106;2023-09-18T12:26:05;22.50;99.90
19586;DHT22;9939;49.246;9.106;2023-09-18T12:28:35;22.70;99.90
19586;DHT22;9939;49.246;9.106;2023-09-18T12:31:03;22.80;99.90
19586;DHT22;9939;49.246;9.106;2023-09-18T12:33:36;22.80;99.90
19586;DHT22;9939;49.246;9.106;2023-09-18T12:36:03;22.90;99.90
19586;DHT22;9939;49.246;9.106;2023-09-18T12:38:31;22.90;99.90
19586;DHT22;9939;49.246;9.106;2023-09-18T12:40:59;23.20;99.90
19586;DHT22;9939;49.246;9.106;2023-09-18T12:43:36;24.00;99.90
19586;DHT22;9939;49.246;9.106;2023-09-18T12:46:04;24.70;99.90
19586;DHT22;9939;49.246;9.106;2023-09-18T12:48:31;24.50;99.90
19586;DHT22;9939;49.246;9.106;2023-09-18T12:51:02;24.20;99.90
19586;DHT22;9939;49.246;9.106;2023-09-18T12:53:30;23.40;99.90
19586;DHT22;9939;49.246;9.106;2023-09-18T12:56:31;23.30;99.90
19586;DHT22;9939;49.246;9.106;2023-09-18T12:58:51;23.40;99.90
19586;DHT22;9939;49.246;9.106;2023-09-18T13:01:37;23.20;99.90
19586;DHT22;9939;49.246;9.106;2023-09-18T13:04:04;23.10;99.90
19586;DHT22;9939;49.246;9.106;2023-09-18T13:06:33;23.50;99.90
19586;DHT22;9939;49.246;9.106;2023-09-18T13:09:15;23.90;99.90
19586;DHT22;9939;49.246;9.106;2023-09-18T13:11:56;25.00;99.90
19586;DHT22;9939;49.246;9.106;2023-09-18T13:14:26;26.80;99.90
19586;DHT22;9939;49.246;9.106;2023-09-18T13:16:59;28.70;99.90
19586;DHT22;9939;49.246;9.106;2023-09-18T13:19:26;28.10;99.90
19586;DHT22;9939;49.246;9.106;2023-09-18T13:21:54;27.70;99.90
19586;DHT22;9939;49.246;9.106;2023-09-18T13:24:29;26.40;99.90
19586;DHT22;9939;49.246;9.106;2023-09-18T13:26:56;25.60;99.90
19586;DHT22;9939;49.246;9.106;2023-09-18T13:29:25;26.10;99.90
19586;DHT22;9939;49.246;9.106;2023-09-18T13:31:52;25.90;99.90
19586;DHT22;9939;49.246;9.106;2023-09-18T13:34:19;25.70;99.90
19586;DHT22;9939;49.246;9.106;2023-09-18T13:36:48;25.50;99.90
19586;DHT22;9939;49.246;9.106;2023-09-18T13:39:14;25.40;99.90
19586;DHT22;9939;49.246;9.106;2023-09-18T13:41:45;24.80;99.90
19586;DHT22;9939;49.246;9.106;2023-09-18T13:44:12;24.80;99.90
19586;DHT22;9939;49.246;9.106;2023-09-18T13:46:38;25.30;99.90
19586;DHT22;9939;49.246;9.106;2023-09-18T13:49:06;26.50;99.90
19586;DHT22;9939;49.246;9.106;2023-09-18T13:51:33;27.70;99.90
19586;DHT22;9939;49.246;9.106;2023-09-18T13:54:00;26.80;99.90
19586;DHT22;9939;49.246;9.106;2023-09-18T13:56:27;25.90;99.90
19586;DHT22;9939;49.246;9.106;2023-09-18T13:58:55;25.20;99.90
19586;DHT22;9939;49.246;9.106;2023-09-18T14:01:25;24.90;99.90
19586;DHT22;9939;49.246;9.106;2023-09-18T14:03:54;24.90;99.90
19586;DHT22;9939;49.246;9.106;2023-09-18T14:06:21;25.10;99.90
19586;DHT22;9939;49.246;9.106;2023-09-18T14:08:49;25.70;99.90
19586;DHT22;9939;49.246;9.106;2023-09-18T14:11:15;25.80;99.90
19586;DHT22;9939;49.246;9.106;2023-09-18T14:13:45;25.70;99.90
19586;DHT22;9939;49.246;9.106;2023-09-18T14:16:12;25.20;99.90
19586;DHT22;9939;49.246;9.106;2023-09-18T14:18:41;25.10;99.90
19586;DHT22;9939;49.246;9.106;2023-09-18T14:21:09;25.10;99.90
19586;DHT22;9939;49.246;9.106;2023-09-18T14:23:36;24.20;99.90
19586;DHT22;9939;49.246;9.106;2023-09-18T14:26:04;24.00;99.90
19586;DHT22;9939;49.246;9.106;2023-09-18T14:28:31;24.00;99.90
19586;DHT22;9939;49.246;9.106;2023-09-18T14:31:02;23.90;99.90
19586;DHT22;9939;49.246;9.106;2023-09-18T14:33:29;23.90;99.90
19586;DHT22;9939;49.246;9.106;2023-09-18T14:35:56;24.00;99.90
19586;DHT22;9939;49.246;9.106;2023-09-18T14:38:23;24.00;99.90
19586;DHT22;9939;49.246;9.106;2023-09-18T14:40:50;24.10;99.90
19586;DHT22;9939;49.246;9.106;2023-09-18T14:43:17;24.60;99.90
19586;DHT22;9939;49.246;9.106;2023-09-18T14:45:44;24.70;99.90
19586;DHT22;9939;49.246;9.106;2023-09-18T14:48:11;25.00;99.90
19586;DHT22;9939;49.246;9.106;2023-09-18T14:50:38;27.60;99.90
19586;DHT22;9939;49.246;9.106;2023-09-18T14:53:05;30.40;99.90
19586;DHT22;9939;49.246;9.106;2023-09-18T14:55:34;31.60;99.90
19586;DHT22;9939;49.246;9.106;2023-09-18T14:58:02;31.90;99.90
19586;DHT22;9939;49.246;9.106;2023-09-18T15:00:29;31.20;99.90
19586;DHT22;9939;49.246;9.106;2023-09-18T15:02:56;29.80;99.90
19586;DHT22;9939;49.246;9.106;2023-09-18T15:05:23;28.60;99.90
19586;DHT22;9939;49.246;9.106;2023-09-18T15:07:50;28.30;99.90
19586;DHT22;9939;49.246;9.106;2023-09-18T15:10:17;29.40;99.90
19586;DHT22;9939;49.246;9.106;2023-09-18T15:12:44;31.70;99.90
19586;DHT22;9939;49.246;9.106;2023-09-18T15:15:11;32.00;99.90
19586;DHT22;9939;49.246;9.106;2023-09-18T15:17:38;33.10;99.90
19586;DHT22;9939;49.246;9.106;2023-09-18T15:20:05;33.70;99.90
19586;DHT22;9939;49.246;9.106;2023-09-18T15:22:32;32.50;99.90
19586;DHT22;9939;49.246;9.106;2023-09-18T15:24:59;32.90;99.90
19586;DHT22;9939;49.246;9.106;2023-09-18T15:27:28;32.80;99.90
19586;DHT22;9939;49.246;9.106;2023-09-18T15:29:55;32.70;99.90
19586;DHT22;9939;49.246;9.106;2023-09-18T15:32:22;34.00;99.90
19586;DHT22;9939;49.246;9.106;2023-09-18T15:34:49;34.40;99.90
19586;DHT22;9939;49.246;9.106;2023-09-18T15:37:16;35.00;99.90
19586;DHT22;9939;49.246;9.106;2023-09-18T15:39:43;34.40;99.90
19586;DHT22;9939;49.246;9.106;2023-09-18T15:42:10;30.70;99.90
19586;DHT22;9939;49.246;9.106;2023-09-18T15:44:37;28.50;99.90
19586;DHT22;9939;49.246;9.106;2023-09-18T15:47:04;29.80;99.90
19586;DHT22;9939;49.246;9.106;2023-09-18T15:49:32;31.80;99.90
19586;DHT22;9939;49.246;9.106;2023-09-18T15:51:59;33.50;99.90
19586;DHT22;9939;49.246;9.106;2023-09-18T15:54:26;32.80;99.90
19586;DHT22;9939;49.246;9.106;2023-09-18T15:56:52;32.00;99.90
19586;DHT22;9939;49.246;9.106;2023-09-18T15:59:20;30.80;99.90
19586;DHT22;9939;49.246;9.106;2023-09-18T16:01:48;30.60;99.90
19586;DHT22;9939;49.246;9.106;2023-09-18T16:04:15;30.70;99.90
19586;DHT22;9939;49.246;9.106;2023-09-18T16:06:43;30.70;99.90
19586;DHT22;9939;49.246;9.106;2023-09-18T16:09:10;29.70;99.90
19586;DHT22;9939;49.246;9.106;2023-09-18T16:11:37;28.10;99.90